Time;durP1;ratioP1;P1;durP2;ratioP2;P2;SDS_P1;SDS_P2;PMS_P1;PMS_P2;Temp;Humidity;BMP_temperature;BMP_pressure;BME280_temperature;BME280_humidity;BME280_pressure;Samples;Min_cycle;Max_cycle;Signal;HPM_P1;HPM_P2
2022/08/20 00:02:17;;;;;;;11.13;2.25;;;;;;;-144.43;100.00;67396.00;5096305;28;20043;-60
2022/08/20 00:05:44;;;;;;;9.25;2.50;;;;;;;-144.43;100.00;67396.00;5079135;28;20139;-61
2022/08/20 00:09:10;;;;;;;8.38;2.03;;;;;;;-144.43;100.00;67396.00;5087556;28;20390;-62
2022/08/20 00:12:36;;;;;;;16.27;2.90;;;;;;;-144.43;100.00;67396.00;5095514;28;20409;-61
2022/08/20 00:16:03;;;;;;;12.23;2.38;;;;;;;-144.43;100.00;67396.00;5095128;28;20036;-60
2022/08/20 00:19:28;;;;;;;8.73;2.22;;;;;;;-144.43;100.00;67396.00;5080735;28;20501;-61
2022/08/20 00:22:55;;;;;;;8.93;2.40;;;;;;;-144.43;100.00;67396.00;5095811;28;20080;-60
2022/08/20 00:26:21;;;;;;;13.93;2.30;;;;;;;-144.43;100.00;67396.00;5088230;28;20032;-59
2022/08/20 00:29:47;;;;;;;7.05;2.47;;;;;;;-144.43;100.00;67396.00;5087870;28;20036;-61
2022/08/20 00:33:17;;;;;;;15.23;2.10;;;;;;;-144.43;100.00;67396.00;5090182;28;20439;-60
2022/08/20 00:36:44;;;;;;;8.30;2.35;;;;;;;-144.43;100.00;67396.00;5083833;28;20060;-59
2022/08/20 00:40:10;;;;;;;10.65;2.28;;;;;;;-144.43;100.00;67396.00;5088338;28;20051;-61
2022/08/20 00:43:48;;;;;;;10.60;2.55;;;;;;;-144.43;100.00;67396.00;5087390;28;20432;-61
2022/08/20 00:47:16;;;;;;;9.38;1.77;;;;;;;-144.43;100.00;67396.00;5087642;28;20040;-59
2022/08/20 00:50:42;;;;;;;10.95;2.08;;;;;;;-144.43;100.00;67396.00;5084582;28;20036;-61
2022/08/20 00:54:07;;;;;;;13.07;1.75;;;;;;;-144.43;100.00;67396.00;5091879;28;20061;-62
2022/08/20 00:57:33;;;;;;;16.92;2.22;;;;;;;-144.43;100.00;67396.00;5087026;28;20107;-61
2022/08/20 01:01:00;;;;;;;8.98;1.75;;;;;;;-144.43;100.00;67396.00;5087446;28;20028;-61
2022/08/20 01:04:27;;;;;;;9.85;2.05;;;;;;;-144.43;100.00;67396.00;5091982;28;20040;-59
2022/08/20 01:07:53;;;;;;;9.02;1.90;;;;;;;-144.43;100.00;67396.00;5091460;28;20068;-61
2022/08/20 01:11:26;;;;;;;11.82;2.13;;;;;;;-144.43;100.00;67396.00;5092107;28;20088;-61
2022/08/20 01:14:52;;;;;;;32.22;3.53;;;;;;;-144.43;100.00;67396.00;5085705;28;20506;-59
2022/08/20 01:18:21;;;;;;;14.82;2.33;;;;;;;-144.43;100.00;67396.00;5091477;28;20719;-60
2022/08/20 01:21:49;;;;;;;12.27;1.90;;;;;;;-144.43;100.00;67396.00;5084216;28;20086;-60
2022/08/20 01:25:32;;;;;;;10.73;2.33;;;;;;;-144.43;100.00;67396.00;5087291;28;20031;-60
2022/08/20 01:28:57;;;;;;;12.75;2.00;;;;;;;-144.43;100.00;67396.00;5086933;28;20051;-60
2022/08/20 01:32:24;;;;;;;13.43;2.17;;;;;;;-144.43;100.00;67396.00;5097528;28;20043;-59
2022/08/20 01:35:50;;;;;;;12.15;1.90;;;;;;;-144.43;100.00;67396.00;5093426;28;20031;-59
2022/08/20 01:39:18;;;;;;;12.70;2.10;;;;;;;-144.43;100.00;67396.00;5088938;28;20040;-59
2022/08/20 01:42:49;;;;;;;14.75;2.15;;;;;;;-144.43;100.00;67396.00;5088766;28;20082;-59
2022/08/20 01:46:16;;;;;;;10.70;2.00;;;;;;;-144.43;100.00;67396.00;5090215;28;20047;-60
2022/08/20 01:49:48;;;;;;;10.55;2.30;;;;;;;-144.43;100.00;67396.00;5090349;28;20078;-58
2022/08/20 01:53:24;;;;;;;13.05;1.92;;;;;;;-144.43;100.00;67396.00;5078993;28;20119;-59
2022/08/20 01:56:52;;;;;;;9.57;1.85;;;;;;;-144.43;100.00;67396.00;5083176;28;20044;-59
2022/08/20 02:00:18;;;;;;;11.32;2.05;;;;;;;-144.43;100.00;67396.00;5081851;28;20119;-58
2022/08/20 02:03:45;;;;;;;9.15;2.10;;;;;;;-144.43;100.00;67396.00;5096903;28;20114;-60
2022/08/20 02:07:17;;;;;;;10.63;2.05;;;;;;;-144.43;100.00;67396.00;5088379;28;20104;-59
2022/08/20 02:10:45;;;;;;;8.93;2.15;;;;;;;-144.43;100.00;67396.00;5089414;28;20075;-60
2022/08/20 02:14:10;;;;;;;15.25;2.13;;;;;;;-144.43;100.00;67396.00;5092964;28;20039;-60
2022/08/20 02:17:38;;;;;;;12.63;2.00;;;;;;;-144.43;100.00;67396.00;5088826;28;20134;-60
2022/08/20 02:21:06;;;;;;;9.38;2.00;;;;;;;-144.43;100.00;67396.00;5081372;28;20089;-60
2022/08/20 02:24:32;;;;;;;11.80;2.15;;;;;;;-144.43;100.00;67396.00;5081099;28;20119;-61
2022/08/20 02:27:59;;;;;;;17.15;2.60;;;;;;;-144.43;100.00;67396.00;5090359;28;20043;-61
2022/08/20 02:31:28;;;;;;;12.40;2.00;;;;;;;-144.43;100.00;67396.00;5080122;28;20122;-61
2022/08/20 02:34:53;;;;;;;16.85;2.45;;;;;;;-144.43;100.00;67396.00;5082298;28;20037;-60
2022/08/20 02:38:18;;;;;;;14.27;2.00;;;;;;;-144.43;100.00;67396.00;5084947;28;20128;-61
2022/08/20 02:41:44;;;;;;;11.50;2.42;;;;;;;-144.43;100.00;67396.00;5079759;28;20036;-60
2022/08/20 02:45:10;;;;;;;13.38;2.25;;;;;;;-144.43;100.00;67396.00;5088517;28;20039;-62
2022/08/20 02:48:36;;;;;;;12.05;2.83;;;;;;;-144.43;100.00;67396.00;5082463;28;20036;-61
2022/08/20 02:52:01;;;;;;;;;;;;;;;-144.43;100.00;67396.00;5092068;28;20044;-60
2022/08/20 02:55:26;;;;;;;17.20;2.17;;;;;;;-144.43;100.00;67396.00;5091275;28;19916;-61
2022/08/20 02:58:53;;;;;;;24.13;3.22;;;;;;;-144.43;100.00;67396.00;5091701;28;20038;-62
2022/08/20 03:02:18;;;;;;;16.10;2.17;;;;;;;-144.43;100.00;67396.00;5092485;28;20036;-63
2022/08/20 03:05:43;;;;;;;12.73;2.03;;;;;;;-144.43;100.00;67396.00;5075340;28;20125;-61
2022/08/20 03:09:08;;;;;;;;;;;;;;;-144.43;100.00;67396.00;5083595;28;20059;-63
2022/08/20 03:12:34;;;;;;;16.90;2.10;;;;;;;-144.43;100.00;67396.00;5085160;28;20385;-61
2022/08/20 03:16:01;;;;;;;15.95;2.30;;;;;;;-144.43;100.00;67396.00;5089032;28;20040;-62
2022/08/20 03:19:28;;;;;;;23.65;2.38;;;;;;;-144.43;100.00;67396.00;5086649;28;20065;-61
2022/08/20 03:22:54;;;;;;;14.82;2.42;;;;;;;-144.43;100.00;67396.00;5092526;28;20837;-62
2022/08/20 03:26:19;;;;;;;;;;;;;;;-144.43;100.00;67396.00;5092205;28;20032;-61
2022/08/20 03:29:44;;;;;;;16.40;2.50;;;;;;;-144.43;100.00;67396.00;5075434;28;19923;-63
2022/08/20 03:33:09;;;;;;;16.23;2.15;;;;;;;-144.43;100.00;67396.00;5080195;28;20555;-61
2022/08/20 03:36:35;;;;;;;17.13;2.40;;;;;;;-144.43;100.00;67396.00;5089509;28;20486;-62
2022/08/20 03:40:05;;;;;;;14.10;2.10;;;;;;;-144.43;100.00;67396.00;5096793;28;20044;-61
2022/08/20 03:43:31;;;;;;;11.52;1.98;;;;;;;-144.43;100.00;67396.00;5094070;28;20141;-63
2022/08/20 03:46:57;;;;;;;9.52;2.25;;;;;;;-144.43;100.00;67396.00;5082007;28;20494;-63
2022/08/20 03:50:25;;;;;;;16.20;2.22;;;;;;;-144.43;100.00;67396.00;5092256;28;20607;-62
2022/08/20 03:53:51;;;;;;;13.43;2.13;;;;;;;-144.43;100.00;67396.00;5075349;28;20052;-60
2022/08/20 03:57:16;;;;;;;15.20;2.50;;;;;;;-144.43;100.00;67396.00;5078905;28;20090;-62
2022/08/20 04:00:50;;;;;;;12.00;2.50;;;;;;;-144.43;100.00;67396.00;5092221;28;20024;-63
2022/08/20 04:04:15;;;;;;;16.80;2.78;;;;;;;-144.43;100.00;67396.00;5076395;28;20494;-61
2022/08/20 04:07:41;;;;;;;17.77;2.40;;;;;;;-144.43;100.00;67396.00;5091037;28;20040;-62
2022/08/20 04:11:06;;;;;;;;;;;;;;;-144.43;100.00;67396.00;5080577;28;20036;-60
2022/08/20 04:14:35;;;;;;;9.18;2.08;;;;;;;-144.43;100.00;67396.00;5085119;28;19917;-63
2022/08/20 04:18:06;;;;;;;8.13;2.08;;;;;;;-144.43;100.00;67396.00;5088499;28;20054;-62
2022/08/20 04:21:34;;;;;;;24.60;2.55;;;;;;;-144.43;100.00;67396.00;5086804;28;20089;-61
2022/08/20 04:25:00;;;;;;;18.38;2.22;;;;;;;-144.43;100.00;67396.00;5092021;28;20036;-61
2022/08/20 04:28:27;;;;;;;15.25;2.10;;;;;;;-144.43;100.00;67396.00;5091805;28;20068;-61
2022/08/20 04:31:54;;;;;;;12.07;2.00;;;;;;;-144.43;100.00;67396.00;5074888;28;20409;-62
2022/08/20 04:35:20;;;;;;;18.45;2.55;;;;;;;-144.43;100.00;67396.00;5078161;28;20033;-61
2022/08/20 04:38:45;;;;;;;25.17;2.38;;;;;;;-144.43;100.00;67396.00;5094458;28;20036;-63
2022/08/20 04:42:10;;;;;;;13.63;2.10;;;;;;;-144.43;100.00;67396.00;5091420;28;20123;-63
2022/08/20 04:45:36;;;;;;;21.15;2.20;;;;;;;-144.43;100.00;67396.00;5090949;28;20078;-63
2022/08/20 04:49:03;;;;;;;17.38;2.30;;;;;;;-144.43;100.00;67396.00;5095277;28;20048;-61
2022/08/20 04:52:31;;;;;;;19.92;2.35;;;;;;;-144.43;100.00;67396.00;5095247;28;20036;-63
2022/08/20 04:55:57;;;;;;;19.75;2.30;;;;;;;-144.43;100.00;67396.00;5078227;28;20110;-61
2022/08/20 04:59:28;;;;;;;15.27;2.17;;;;;;;-144.43;100.00;67396.00;5080681;28;20072;-63
2022/08/20 05:02:53;;;;;;;19.27;2.30;;;;;;;-144.43;100.00;67396.00;5095003;28;20479;-63
2022/08/20 05:06:18;;;;;;;18.50;2.13;;;;;;;-144.43;100.00;67396.00;5095161;28;20028;-63
2022/08/20 05:09:44;;;;;;;13.40;1.88;;;;;;;-144.43;100.00;67396.00;5091477;28;20067;-63
2022/08/20 05:13:09;;;;;;;19.13;2.20;;;;;;;-144.43;100.00;67396.00;5082563;28;20041;-62
2022/08/20 05:16:37;;;;;;;13.27;1.80;;;;;;;-144.43;100.00;67396.00;5094580;28;20031;-63
2022/08/20 05:20:03;;;;;;;8.25;1.60;;;;;;;-144.43;100.00;67396.00;5077797;28;20040;-61
2022/08/20 05:23:29;;;;;;;7.07;1.35;;;;;;;-144.43;100.00;67396.00;5079276;28;20033;-61
2022/08/20 05:26:55;;;;;;;11.67;1.97;;;;;;;-144.43;100.00;67396.00;5094468;28;20066;-63
2022/08/20 05:30:21;;;;;;;11.32;1.70;;;;;;;-144.43;100.00;67396.00;5094433;28;20268;-61
2022/08/20 05:33:48;;;;;;;10.68;1.60;;;;;;;-144.43;100.00;67396.00;5078020;28;20048;-63
2022/08/20 05:37:14;;;;;;;7.40;2.08;;;;;;;-144.43;100.00;67396.00;5087604;28;20127;-63
2022/08/20 05:40:40;;;;;;;10.18;1.90;;;;;;;-144.43;100.00;67396.00;5093994;28;20039;-61
2022/08/20 05:44:12;;;;;;;13.60;2.10;;;;;;;-144.43;100.00;67396.00;5090975;28;20056;-63
2022/08/20 05:47:38;;;;;;;9.60;1.98;;;;;;;-144.43;100.00;67396.00;5100659;28;20031;-63
2022/08/20 05:51:04;;;;;;;11.50;1.90;;;;;;;-144.43;100.00;67396.00;5085295;28;20040;-63
2022/08/20 05:54:29;;;;;;;;;;;;;;;-144.43;100.00;67396.00;5088154;28;20398;-61
2022/08/20 05:57:59;;;;;;;8.32;1.80;;;;;;;-144.43;100.00;67396.00;5090516;28;20026;-61
2022/08/20 06:01:24;;;;;;;6.03;1.40;;;;;;;-144.43;100.00;67396.00;5087798;28;20470;-62
2022/08/20 06:04:50;;;;;;;7.07;1.70;;;;;;;-144.43;100.00;67396.00;5093719;28;20032;-63
2022/08/20 06:08:16;;;;;;;9.75;1.70;;;;;;;-144.43;100.00;67396.00;5091503;28;20044;-62
2022/08/20 06:11:41;;;;;;;6.30;1.40;;;;;;;-144.43;100.00;67396.00;5093326;28;20051;-62
2022/08/20 06:15:07;;;;;;;8.27;1.70;;;;;;;-144.43;100.00;67396.00;5093711;28;20040;-62
2022/08/20 06:18:32;;;;;;;5.88;1.80;;;;;;;-144.43;100.00;67396.00;5093396;28;20492;-62
2022/08/20 06:21:57;;;;;;;6.53;1.70;;;;;;;-144.43;100.00;67396.00;5076641;28;20040;-61
2022/08/20 06:25:22;;;;;;;10.55;1.70;;;;;;;-144.43;100.00;67396.00;5079013;28;20090;-62
2022/08/20 06:28:48;;;;;;;7.88;1.70;;;;;;;-144.43;100.00;67396.00;5092779;28;20093;-61
2022/08/20 06:32:13;;;;;;;30.60;2.90;;;;;;;-144.43;100.00;67396.00;5093119;28;20036;-62
2022/08/20 06:35:39;;;;;;;9.32;2.92;;;;;;;-144.43;100.00;67396.00;5088051;28;20044;-64
2022/08/20 06:39:04;;;;;;;31.20;5.78;;;;;;;-144.43;100.00;67396.00;5084468;28;20032;-63
2022/08/20 06:42:29;;;;;;;17.67;6.10;;;;;;;-144.43;100.00;67396.00;5100114;28;20125;-62
2022/08/20 06:45:56;;;;;;;14.23;5.07;;;;;;;-144.43;100.00;67396.00;5091124;28;20044;-63
2022/08/20 06:49:21;;;;;;;12.43;4.70;;;;;;;-144.43;100.00;67396.00;5086221;28;20039;-63
2022/08/20 06:52:47;;;;;;;17.40;6.05;;;;;;;-144.43;100.00;67396.00;5092979;28;20036;-63
2022/08/20 06:56:13;;;;;;;21.40;7.47;;;;;;;-144.43;100.00;67396.00;5093074;28;20394;-63
2022/08/20 06:59:38;;;;;;;17.38;5.80;;;;;;;-144.43;100.00;67396.00;5079331;28;20163;-62
2022/08/20 07:03:04;;;;;;;8.23;4.40;;;;;;;-144.43;100.00;67396.00;5092206;28;20127;-63
2022/08/20 07:06:33;;;;;;;8.65;2.72;;;;;;;-144.43;100.00;67396.00;5091232;28;20046;-63
2022/08/20 07:09:59;;;;;;;12.20;2.80;;;;;;;-144.43;100.00;67396.00;5092015;28;20036;-63
2022/08/20 07:13:24;;;;;;;12.75;2.55;;;;;;;-144.43;100.00;67396.00;5090343;28;20461;-64
2022/08/20 07:16:49;;;;;;;38.63;4.05;;;;;;;-144.43;100.00;67396.00;5091978;28;20066;-64
2022/08/20 07:20:16;;;;;;;41.83;3.92;;;;;;;-144.43;100.00;67396.00;5078669;28;20028;-64
2022/08/20 07:23:42;;;;;;;43.92;3.42;;;;;;;-144.43;100.00;67396.00;5089548;28;20032;-61
2022/08/20 07:27:07;;;;;;;35.50;3.47;;;;;;;-144.43;100.00;67396.00;5092098;28;20405;-63
2022/08/20 07:34:17;;;;;;;23.20;2.63;;;;;;;-144.43;100.00;67396.00;5091790;28;20032;-64
2022/08/20 07:37:45;;;;;;;26.73;3.22;;;;;;;-144.43;100.00;67396.00;5088553;28;20032;-63
2022/08/20 07:41:15;;;;;;;16.35;2.42;;;;;;;-144.43;100.00;67396.00;5092715;28;20044;-63
2022/08/20 07:44:41;;;;;;;17.30;2.55;;;;;;;-144.43;100.00;67396.00;5088570;28;20039;-63
2022/08/20 07:48:07;;;;;;;12.05;1.80;;;;;;;-144.43;100.00;67396.00;5091666;28;20078;-62
2022/08/20 07:51:33;;;;;;;;;;;;;;;-144.43;100.00;67396.00;5091670;28;20024;-63
2022/08/20 07:54:58;;;;;;;46.30;3.50;;;;;;;-144.43;100.00;67396.00;5091473;28;19916;-63
2022/08/20 07:58:23;;;;;;;13.45;1.85;;;;;;;-144.43;100.00;67396.00;5091757;28;20497;-62
2022/08/20 08:01:50;;;;;;;8.05;1.52;;;;;;;-144.43;100.00;67396.00;5090448;28;20029;-64
2022/08/20 08:05:16;;;;;;;8.80;1.98;;;;;;;-144.43;100.00;67396.00;5090375;28;20044;-64
2022/08/20 08:08:42;;;;;;;7.30;1.88;;;;;;;-144.43;100.00;67396.00;5090362;28;20039;-63
2022/08/20 08:12:07;;;;;;;5.40;1.50;;;;;;;-144.43;100.00;67396.00;5090254;28;20074;-58
2022/08/20 08:15:34;;;;;;;10.77;1.48;;;;;;;-144.43;100.00;67396.00;5095188;28;20132;-62
2022/08/20 08:19:05;;;;;;;11.25;1.58;;;;;;;-144.43;100.00;67396.00;5093268;28;20434;-63
2022/08/20 08:22:31;;;;;;;10.38;1.55;;;;;;;-144.43;100.00;67396.00;5095455;28;20024;-62
2022/08/20 08:25:58;;;;;;;44.40;3.65;;;;;;;-144.43;100.00;67396.00;5095073;28;20089;-63
2022/08/20 08:29:22;;;;;;;;;;;;;;;-144.43;100.00;67396.00;5095457;28;20085;-63
2022/08/20 08:36:31;;;;;;;136.50;12.65;;;;;;;-144.43;100.00;67396.00;5093510;28;20032;-65
2022/08/20 08:39:56;;;;;;;115.80;10.47;;;;;;;-144.43;100.00;67396.00;5095108;28;20032;-62
2022/08/20 08:43:26;;;;;;;109.10;9.57;;;;;;;-144.43;100.00;67396.00;5096170;28;20036;-61
2022/08/20 08:47:01;;;;;;;90.68;8.30;;;;;;;-144.43;100.00;67396.00;5085650;28;20021;-63
2022/08/20 08:50:34;;;;;;;87.13;8.77;;;;;;;-144.43;100.00;67396.00;5095172;28;20368;-61
2022/08/20 08:54:01;;;;;;;102.88;9.07;;;;;;;-144.43;100.00;67396.00;5078288;28;20134;-61
2022/08/20 08:57:27;;;;;;;124.97;9.10;;;;;;;-144.43;100.00;67396.00;5080304;28;20083;-63
2022/08/20 09:00:54;;;;;;;102.57;8.18;;;;;;;-144.43;100.00;67396.00;5094973;28;20068;-63
2022/08/20 09:04:30;;;;;;;96.10;7.97;;;;;;;-144.43;100.00;67396.00;5094576;28;20406;-62
2022/08/20 09:07:56;;;;;;;90.50;7.65;;;;;;;-144.43;100.00;67396.00;5088160;28;20028;-61
2022/08/20 09:11:22;;;;;;;86.28;6.93;;;;;;;-144.43;100.00;67396.00;5094170;28;20081;-62
2022/08/20 09:14:49;;;;;;;91.10;8.73;;;;;;;-144.43;100.00;67396.00;5084135;28;20482;-64
2022/08/20 09:18:13;;;;;;;;;;;;;;;-144.43;100.00;67396.00;5095192;28;20541;-63
2022/08/20 09:21:39;;;;;;;85.25;8.13;;;;;;;-144.43;100.00;67396.00;5077823;28;19965;-61
2022/08/20 09:25:04;;;;;;;83.95;8.25;;;;;;;-144.43;100.00;67396.00;5093633;28;20043;-61
2022/08/20 09:28:30;;;;;;;80.07;8.37;;;;;;;-144.43;100.00;67396.00;5094502;28;20404;-63
2022/08/20 09:32:12;;;;;;;69.05;7.63;;;;;;;-144.43;100.00;67396.00;5077629;28;20068;-62
2022/08/20 09:35:39;;;;;;;73.78;7.60;;;;;;;-144.43;100.00;67396.00;5077932;28;20119;-64
2022/08/20 09:39:05;;;;;;;61.75;8.25;;;;;;;-144.43;100.00;67396.00;5085743;28;20043;-61
2022/08/20 09:42:32;;;;;;;69.45;9.48;;;;;;;-144.43;100.00;67396.00;5093961;28;20032;-63
2022/08/20 09:45:58;;;;;;;86.90;10.38;;;;;;;-144.43;100.00;67396.00;5107076;28;20046;-63
2022/08/20 09:49:23;;;;;;;75.17;7.97;;;;;;;-144.43;100.00;67396.00;5087837;28;20032;-62
2022/08/20 09:52:49;;;;;;;63.25;6.78;;;;;;;-144.43;100.00;67396.00;5093866;28;20036;-60
2022/08/20 09:56:20;;;;;;;60.83;6.47;;;;;;;-144.43;100.00;67396.00;5092425;28;20036;-61
2022/08/20 09:59:52;;;;;;;45.08;4.50;;;;;;;-144.43;100.00;67396.00;5077074;28;20123;-61
2022/08/20 10:03:18;;;;;;;33.67;3.38;;;;;;;-144.43;100.00;67396.00;5080373;28;20406;-63
2022/08/20 10:06:44;;;;;;;25.70;2.50;;;;;;;-144.43;100.00;67396.00;5093128;28;20081;-63
2022/08/20 10:10:11;;;;;;;23.92;2.40;;;;;;;-144.43;100.00;67396.00;5089934;28;20487;-61
2022/08/20 10:13:36;;;;;;;17.95;2.15;;;;;;;-144.43;100.00;67396.00;5087795;28;20043;-63
2022/08/20 10:17:02;;;;;;;16.55;2.05;;;;;;;-144.43;100.00;67396.00;5093609;28;20116;-62
2022/08/20 10:20:28;;;;;;;18.35;2.00;;;;;;;-144.43;100.00;67396.00;5093714;28;20028;-66
2022/08/20 10:23:54;;;;;;;15.63;1.98;;;;;;;-144.43;100.00;67396.00;5076707;28;20045;-62
2022/08/20 10:27:19;;;;;;;15.90;2.05;;;;;;;-144.43;100.00;67396.00;5078178;28;20033;-63
2022/08/20 10:30:44;;;;;;;11.30;1.75;;;;;;;-144.43;100.00;67396.00;5084772;28;20106;-63
2022/08/20 10:34:09;;;;;;;22.15;2.13;;;;;;;-144.43;100.00;67396.00;5092773;28;20475;-61
2022/08/20 10:37:35;;;;;;;9.68;1.52;;;;;;;-144.43;100.00;67396.00;5084932;28;20044;-61
2022/08/20 10:41:00;;;;;;;7.78;1.60;;;;;;;-144.43;100.00;67396.00;5094852;28;20032;-62
2022/08/20 10:44:26;;;;;;;14.55;2.20;;;;;;;-144.43;100.00;67396.00;5093143;28;20036;-63
2022/08/20 10:47:51;;;;;;;10.38;2.03;;;;;;;-144.43;100.00;67396.00;5076252;28;20036;-61
2022/08/20 10:51:16;;;;;;;7.32;1.85;;;;;;;-144.43;100.00;67396.00;5086040;28;20074;-61
2022/08/20 10:54:42;;;;;;;11.68;1.88;;;;;;;-144.43;100.00;67396.00;5083892;28;20044;-62
2022/08/20 10:58:11;;;;;;;9.70;1.88;;;;;;;-144.43;100.00;67396.00;5076061;28;20044;-60
2022/08/20 11:01:37;;;;;;;12.02;2.30;;;;;;;-144.43;100.00;67396.00;5092696;28;20032;-63
2022/08/20 11:05:03;;;;;;;10.85;2.10;;;;;;;-144.43;100.00;67396.00;5092682;28;20443;-61
2022/08/20 11:08:31;;;;;;;6.35;2.00;;;;;;;-144.43;100.00;67396.00;5090278;28;20040;-63
2022/08/20 11:11:56;;;;;;;8.88;2.00;;;;;;;-144.43;100.00;67396.00;5088773;28;20047;-60
2022/08/20 11:15:21;;;;;;;8.90;1.88;;;;;;;-144.43;100.00;67396.00;5084208;28;20062;-61
2022/08/20 11:18:47;;;;;;;9.27;2.10;;;;;;;-144.43;100.00;67396.00;5090832;28;20028;-62
2022/08/20 11:22:12;;;;;;;10.00;2.08;;;;;;;-144.43;100.00;67396.00;5091208;28;20040;-61
2022/08/20 11:25:37;;;;;;;12.80;2.17;;;;;;;-144.43;100.00;67396.00;5076229;28;20124;-61
2022/08/20 11:29:03;;;;;;;9.10;2.08;;;;;;;-144.43;100.00;67396.00;5092494;28;20509;-62
2022/08/20 11:32:28;;;;;;;7.68;2.28;;;;;;;-144.43;100.00;67396.00;5092417;28;20085;-64
2022/08/20 11:35:54;;;;;;;9.77;2.35;;;;;;;-144.43;100.00;67396.00;5075807;28;20513;-62
2022/08/20 11:39:19;;;;;;;9.55;2.20;;;;;;;-144.43;100.00;67396.00;5087351;28;20032;-64
2022/08/20 11:42:46;;;;;;;9.40;2.20;;;;;;;-144.43;100.00;67396.00;5083676;28;20029;-62
2022/08/20 11:46:12;;;;;;;5.10;1.58;;;;;;;-144.43;100.00;67396.00;5091274;28;20040;-61
2022/08/20 11:49:37;;;;;;;11.35;4.03;;;;;;;-144.43;100.00;67396.00;5080053;28;20482;-64
2022/08/20 11:53:02;;;;;;;8.18;3.05;;;;;;;-144.43;100.00;67396.00;5096474;28;20409;-63
2022/08/20 11:56:28;;;;;;;10.23;2.30;;;;;;;-144.43;100.00;67396.00;5096445;28;20032;-62
2022/08/20 11:59:54;;;;;;;12.05;1.80;;;;;;;-144.43;100.00;67396.00;5079503;28;20120;-62
2022/08/20 12:03:20;;;;;;;11.15;2.28;;;;;;;-144.43;100.00;67396.00;5082647;28;20509;-64
2022/08/20 12:06:45;;;;;;;8.23;2.22;;;;;;;-144.43;100.00;67396.00;5095508;28;20044;-62
2022/08/20 12:10:12;;;;;;;13.05;4.28;;;;;;;-144.43;100.00;67396.00;5092178;28;20083;-63
2022/08/20 12:13:37;;;;;;;;;;;;;;;-144.43;100.00;67396.00;5092229;28;20036;-61
2022/08/20 12:17:08;;;;;;;51.88;4.03;;;;;;;-144.43;100.00;67396.00;5087079;28;19923;-63
2022/08/20 12:20:38;;;;;;;17.85;3.17;;;;;;;-144.43;100.00;67396.00;5095912;28;20043;-62
2022/08/20 12:24:03;;;;;;;9.90;2.88;;;;;;;-144.43;100.00;67396.00;5079179;28;20054;-63
2022/08/20 12:27:30;;;;;;;9.37;2.43;;;;;;;-144.43;100.00;67396.00;5080575;28;20091;-63
2022/08/20 12:30:56;;;;;;;6.85;2.80;;;;;;;-144.43;100.00;67396.00;5095946;28;20281;-62
2022/08/20 12:34:22;;;;;;;12.98;3.10;;;;;;;-144.43;100.00;67396.00;5095811;28;20028;-62
2022/08/20 12:37:47;;;;;;;10.45;3.17;;;;;;;-144.43;100.00;67396.00;5088574;28;20067;-62
2022/08/20 12:41:14;;;;;;;8.73;2.60;;;;;;;-144.43;100.00;67396.00;5088249;28;20542;-61
2022/08/20 12:44:40;;;;;;;29.67;4.18;;;;;;;-144.43;100.00;67396.00;5087606;28;20040;-63
2022/08/20 12:48:07;;;;;;;10.38;2.22;;;;;;;-144.43;100.00;67396.00;5091776;28;20024;-63
2022/08/20 12:51:32;;;;;;;63.22;3.90;;;;;;;-144.43;100.00;67396.00;5090470;28;20474;-65
2022/08/20 12:54:58;;;;;;;10.55;2.30;;;;;;;-144.43;100.00;67396.00;5095221;28;20391;-64
2022/08/20 12:58:26;;;;;;;13.93;2.90;;;;;;;-144.43;100.00;67396.00;5094974;28;20028;-61
2022/08/20 13:01:51;;;;;;;17.38;4.43;;;;;;;-144.43;100.00;67396.00;5083240;28;20479;-61
2022/08/20 13:05:18;;;;;;;13.68;4.68;;;;;;;-144.43;100.00;67396.00;5094839;28;20044;-63
2022/08/20 13:08:46;;;;;;;16.92;3.95;;;;;;;-144.43;100.00;67396.00;5094123;28;20040;-63
2022/08/20 13:12:13;;;;;;;9.25;2.13;;;;;;;-144.43;100.00;67396.00;5090838;28;20135;-64
2022/08/20 13:15:38;;;;;;;61.95;4.80;;;;;;;-144.43;100.00;67396.00;5090404;28;20044;-63
2022/08/20 13:19:04;;;;;;;8.02;1.95;;;;;;;-144.43;100.00;67396.00;5083418;28;20115;-61
2022/08/20 13:22:29;;;;;;;11.75;2.13;;;;;;;-144.43;100.00;67396.00;5094647;28;20032;-63
2022/08/20 13:25:54;;;;;;;8.15;2.13;;;;;;;-144.43;100.00;67396.00;5077746;28;20044;-63
2022/08/20 13:29:20;;;;;;;8.50;2.10;;;;;;;-144.43;100.00;67396.00;5080821;28;20101;-65
2022/08/20 13:32:45;;;;;;;8.27;1.88;;;;;;;-144.43;100.00;67396.00;5094531;28;20036;-65
2022/08/20 13:36:12;;;;;;;7.18;2.05;;;;;;;-144.43;100.00;67396.00;5094443;28;20119;-63
2022/08/20 13:39:38;;;;;;;6.82;1.73;;;;;;;-144.43;100.00;67396.00;5089999;28;20028;-64
2022/08/20 13:43:03;;;;;;;10.48;2.42;;;;;;;-144.43;100.00;67396.00;5094128;28;20040;-62
2022/08/20 13:46:28;;;;;;;9.77;2.25;;;;;;;-144.43;100.00;67396.00;5104712;28;20047;-62
2022/08/20 13:49:55;;;;;;;17.38;3.53;;;;;;;-144.43;100.00;67396.00;5092462;28;20032;-62
2022/08/20 13:53:21;;;;;;;11.57;2.42;;;;;;;-144.43;100.00;67396.00;5086632;28;20051;-60
2022/08/20 13:56:46;;;;;;;11.95;2.38;;;;;;;-144.43;100.00;67396.00;5082748;28;20044;-63
2022/08/20 14:00:13;;;;;;;15.98;2.55;;;;;;;-144.43;100.00;67396.00;5089872;28;20032;-61
2022/08/20 14:03:39;;;;;;;15.75;2.78;;;;;;;-144.43;100.00;67396.00;5089666;28;20067;-64
2022/08/20 14:07:12;;;;;;;6.63;2.40;;;;;;;-144.43;100.00;67396.00;5092350;28;20563;-61
2022/08/20 14:10:39;;;;;;;10.13;2.72;;;;;;;-144.43;100.00;67396.00;5092462;28;20028;-63
2022/08/20 14:14:04;;;;;;;8.23;1.95;;;;;;;-144.43;100.00;67396.00;5091941;28;20029;-64
2022/08/20 14:17:33;;;;;;;11.32;2.78;;;;;;;-144.43;100.00;67396.00;5092360;28;20043;-63
2022/08/20 14:21:00;;;;;;;17.63;2.55;;;;;;;-144.43;100.00;67396.00;5091974;28;20055;-62
2022/08/20 14:24:25;;;;;;;;;;;;;;;-144.43;100.00;67396.00;5090779;28;20040;-64
2022/08/20 14:27:53;;;;;;;13.50;2.47;;;;;;;-144.43;100.00;67396.00;5094670;28;19974;-62
2022/08/20 14:31:20;;;;;;;21.38;2.90;;;;;;;-144.43;100.00;67396.00;5092844;28;20036;-62
2022/08/20 14:34:45;;;;;;;8.10;2.28;;;;;;;-144.43;100.00;67396.00;5090768;28;20029;-62
2022/08/20 14:38:12;;;;;;;11.77;2.78;;;;;;;-144.43;100.00;67396.00;5092669;28;20162;-63
2022/08/20 14:41:38;;;;;;;11.32;2.63;;;;;;;-144.43;100.00;67396.00;5094187;28;20088;-63
2022/08/20 14:45:05;;;;;;;14.52;2.92;;;;;;;-144.43;100.00;67396.00;5081744;28;20398;-63
2022/08/20 14:48:35;;;;;;;9.80;2.20;;;;;;;-144.43;100.00;67396.00;5093055;28;20039;-63
2022/08/20 14:52:02;;;;;;;8.27;2.40;;;;;;;-144.43;100.00;67396.00;5075550;28;20035;-63
2022/08/20 14:55:29;;;;;;;11.07;3.38;;;;;;;-144.43;100.00;67396.00;5075537;28;20044;-63
2022/08/20 14:58:54;;;;;;;10.48;3.28;;;;;;;-144.43;100.00;67396.00;5090972;28;20028;-61
2022/08/20 15:02:19;;;;;;;13.63;3.17;;;;;;;-144.43;100.00;67396.00;5090723;28;20121;-64
2022/08/20 15:05:44;;;;;;;16.33;3.28;;;;;;;-144.43;100.00;67396.00;5073501;28;20055;-62
2022/08/20 15:09:10;;;;;;;10.85;3.63;;;;;;;-144.43;100.00;67396.00;5084983;28;20034;-63
2022/08/20 15:12:35;;;;;;;15.40;3.50;;;;;;;-144.43;100.00;67396.00;5084067;28;20436;-64
2022/08/20 15:16:02;;;;;;;16.20;3.33;;;;;;;-144.43;100.00;67396.00;5088938;28;20078;-62
2022/08/20 15:19:27;;;;;;;11.35;3.10;;;;;;;-144.43;100.00;67396.00;5087015;28;20032;-63
2022/08/20 15:22:53;;;;;;;14.37;2.77;;;;;;;-144.43;100.00;67396.00;5091730;28;20028;-62
2022/08/20 15:26:19;;;;;;;16.88;2.70;;;;;;;-144.43;100.00;67396.00;5092312;28;20032;-64
2022/08/20 15:29:45;;;;;;;8.35;1.98;;;;;;;-144.43;100.00;67396.00;5074925;28;20601;-63
2022/08/20 15:33:11;;;;;;;11.05;2.70;;;;;;;-144.43;100.00;67396.00;5079833;28;20044;-63
2022/08/20 15:36:36;;;;;;;14.63;2.60;;;;;;;-144.43;100.00;67396.00;5093031;28;20078;-63
2022/08/20 15:40:06;;;;;;;15.35;3.10;;;;;;;-144.43;100.00;67396.00;5097003;28;20044;-62
2022/08/20 15:43:31;;;;;;;23.48;3.33;;;;;;;-144.43;100.00;67396.00;5092225;28;20062;-63